South Elma, Washington
Current Conditions -  °F | °C
As of 4:36 AM on Monday 20 Oct 2014 (Local Time) from KSHN Reporting Station
Overcast Overcast  
Wind Chill: 57°   Ceiling: 2000
Heat Index: 57°   Visibility: 10mi
Dew Point: 55°   Wind: 5mph
Humidity: 93%   Direction: 250°WSW
Pressure: 29.68"   Gusts: NA
Location:  46.9859°N, 123.385°W
Report Text: KSHN 201136Z AUTO 25004KT 10SM SCT012 BKN020 OVC025 14/13 A2968 RMK AO2 RAE28 P0002 T01390128 TSNO $
Loading
Personal Weather Stations






























Interactive Weather Map
Tropical Storm Tracking
New forecast layout! Learn more

10-Day Weather Forecast

Advertisements
Track Severe Weather on mobile